createdAt,value
2023-02-16T00:02:01.527Z,99060.02
2023-02-16T00:05:32.724Z,99051.33
2023-02-16T00:08:34.574Z,99054.77
2023-02-16T00:11:55.411Z,99050.61
2023-02-16T00:14:57.789Z,99050.64
2023-02-16T00:18:02.172Z,99046.83
2023-02-16T00:21:04.223Z,99047.86
2023-02-16T00:24:06.138Z,99049.02
2023-02-16T00:27:13.378Z,99045.48
2023-02-16T00:30:18.148Z,99046.01
2023-02-16T00:33:21.168Z,99048.98
2023-02-16T00:36:23.331Z,99042.48
2023-02-16T00:39:25.568Z,99039.47
2023-02-16T00:42:30.783Z,99033.63
2023-02-16T00:45:37.597Z,99034.02
2023-02-16T00:48:39.419Z,99040.47
2023-02-16T00:51:42.549Z,99040.15
2023-02-16T00:54:44.384Z,99036.20
2023-02-16T00:57:56.739Z,99031.16
2023-02-16T01:01:05.842Z,99022.03
2023-02-16T01:04:11.934Z,99024.97
2023-02-16T01:07:36.564Z,99021.27
2023-02-16T01:10:58.005Z,99021.63
2023-02-16T01:13:59.952Z,99017.32
2023-02-16T01:17:01.830Z,99011.56
2023-02-16T01:20:13.347Z,99007.96
2023-02-16T01:23:15.291Z,99005.09
2023-02-16T01:26:19.396Z,99000.28
2023-02-16T01:29:21.615Z,99001.92
2023-02-16T01:32:24.832Z,99003.83
2023-02-16T01:35:32.592Z,98998.65
2023-02-16T01:38:34.531Z,98994.39
2023-02-16T01:41:48.634Z,98999.58
2023-02-16T01:45:01.228Z,98990.29
2023-02-16T01:48:06.386Z,98985.39
2023-02-16T01:51:18.265Z,98980.79
2023-02-16T01:54:30.585Z,98984.61
2023-02-16T01:57:48.817Z,98986.65
2023-02-16T02:00:51.640Z,98987.27
2023-02-16T02:04:12.245Z,98979.23
2023-02-16T02:07:23.267Z,98989.37
2023-02-16T02:10:40.946Z,98985.60
2023-02-16T02:13:51.930Z,98987.04
2023-02-16T02:17:04.584Z,98983.00
2023-02-16T02:20:48.988Z,98985.11
2023-02-16T02:23:57.064Z,98992.00
2023-02-16T02:27:24.316Z,98988.20
2023-02-16T02:30:32.370Z,98986.41
2023-02-16T02:33:59.367Z,98995.08
2023-02-16T02:37:15.606Z,98997.42
2023-02-16T02:40:36.158Z,98990.08
2023-02-16T02:43:45.390Z,98998.39
2023-02-16T02:46:48.035Z,99001.52
2023-02-16T02:49:52.764Z,98996.31
2023-02-16T02:52:57.304Z,98991.25
2023-02-16T02:56:20.676Z,98994.67
2023-02-16T02:59:46.292Z,98991.45
2023-02-16T03:02:52.889Z,98990.29
2023-02-16T03:05:56.694Z,98988.86
2023-02-16T03:09:08.068Z,98985.36
2023-02-16T03:12:30.781Z,98986.66
2023-02-16T03:15:34.197Z,98986.77
2023-02-16T03:18:56.944Z,98984.23
2023-02-16T03:22:18.244Z,98979.27
2023-02-16T03:25:42.006Z,98983.80
2023-02-16T03:29:03.741Z,98985.44
2023-02-16T03:32:06.139Z,98979.80
2023-02-16T03:35:08.742Z,98981.51
2023-02-16T03:38:10.664Z,98974.20
2023-02-16T03:41:12.569Z,98974.04
2023-02-16T03:44:15.117Z,98968.19
2023-02-16T03:47:17.221Z,98966.31
2023-02-16T03:50:19.273Z,98965.05
2023-02-16T03:53:21.264Z,98968.13
2023-02-16T03:56:23.204Z,98971.31
2023-02-16T03:59:25.122Z,98973.14
2023-02-16T04:02:28.096Z,98970.74
2023-02-16T04:05:30.092Z,98970.84
2023-02-16T04:08:32.006Z,98967.85
2023-02-16T04:11:52.365Z,98964.56
2023-02-16T04:14:54.176Z,98960.55
2023-02-16T04:17:56.494Z,98956.63
2023-02-16T04:20:58.340Z,98954.66
2023-02-16T04:24:00.204Z,98953.21
2023-02-16T04:27:01.991Z,98947.23
2023-02-16T04:30:06.276Z,98945.55
2023-02-16T04:33:08.119Z,98944.98
2023-02-16T04:36:10.071Z,98950.02
2023-02-16T04:39:11.992Z,98951.58
2023-02-16T04:42:13.784Z,98945.29
2023-02-16T04:45:15.754Z,98949.95
2023-02-16T04:48:17.590Z,98944.37
2023-02-16T04:51:19.467Z,98949.89
2023-02-16T04:54:21.303Z,98947.63
2023-02-16T04:57:24.376Z,98940.27
2023-02-16T05:00:26.486Z,98940.82
2023-02-16T05:03:28.371Z,98939.61
2023-02-16T05:06:30.189Z,98934.86
2023-02-16T05:09:31.971Z,98934.55
2023-02-16T05:12:52.407Z,98936.61
2023-02-16T05:15:54.475Z,98938.06
2023-02-16T05:18:58.628Z,98940.05
2023-02-16T05:22:00.719Z,98939.30
2023-02-16T05:25:02.679Z,98935.91
2023-02-16T05:28:05.127Z,98934.29
2023-02-16T05:31:07.411Z,98933.81
2023-02-16T05:34:09.677Z,98937.61
2023-02-16T05:37:13.109Z,98940.48
2023-02-16T05:40:14.949Z,98946.02
2023-02-16T05:43:16.879Z,98944.09
2023-02-16T05:46:19.790Z,98945.41
2023-02-16T05:49:21.771Z,98951.64
2023-02-16T05:52:23.683Z,98953.73
2023-02-16T05:55:25.895Z,98952.29
2023-02-16T05:58:27.697Z,98955.06
2023-02-16T06:01:29.521Z,98960.33
2023-02-16T06:04:31.974Z,98957.75
2023-02-16T06:07:33.796Z,98964.59
2023-02-16T06:10:35.752Z,98968.96
2023-02-16T06:13:37.590Z,98970.45
2023-02-16T06:16:42.044Z,98970.01
2023-02-16T06:19:43.874Z,98971.63
2023-02-16T06:22:45.763Z,98980.60
2023-02-16T06:25:50.748Z,98978.48
2023-02-16T06:28:53.266Z,98969.34
2023-02-16T06:31:55.388Z,98969.57
2023-02-16T06:34:57.324Z,98973.21
2023-02-16T06:37:59.265Z,98973.17
2023-02-16T06:41:01.605Z,98970.33
2023-02-16T06:44:09.144Z,98969.52
2023-02-16T06:47:11.232Z,98967.98
2023-02-16T06:50:13.851Z,98977.38
2023-02-16T06:53:15.674Z,98979.64
2023-02-16T06:56:17.563Z,98983.61
2023-02-16T06:59:19.583Z,98983.39
2023-02-16T07:02:21.619Z,98976.59
2023-02-16T07:05:24.329Z,98974.75
2023-02-16T07:08:27.393Z,98973.51
2023-02-16T07:11:29.404Z,98977.61
2023-02-16T07:14:31.527Z,98977.54
2023-02-16T07:17:33.421Z,98978.05
2023-02-16T07:20:35.366Z,98975.73
2023-02-16T07:23:37.301Z,98979.77
2023-02-16T07:26:39.140Z,98978.00
2023-02-16T07:29:41.037Z,98977.02
2023-02-16T07:32:43.243Z,98981.10
2023-02-16T07:35:44.951Z,98975.08
2023-02-16T07:38:46.800Z,98978.02
2023-02-16T07:41:48.715Z,98971.38
2023-02-16T07:44:52.720Z,98966.73
2023-02-16T07:47:54.576Z,98956.61
2023-02-16T07:50:56.843Z,98958.74
2023-02-16T07:53:59.375Z,98961.42
2023-02-16T07:57:01.232Z,98963.49
2023-02-16T08:00:03.933Z,98958.95
2023-02-16T08:03:13.334Z,98958.04
2023-02-16T08:06:16.313Z,98959.66
2023-02-16T08:09:18.316Z,98963.30
2023-02-16T08:12:21.271Z,98954.98
2023-02-16T08:15:23.369Z,98965.48
2023-02-16T08:18:25.293Z,98960.69
2023-02-16T08:21:31.287Z,98962.20
2023-02-16T08:24:34.090Z,98963.91
2023-02-16T08:27:36.197Z,98969.00
2023-02-16T08:30:38.112Z,98967.14
2023-02-16T08:33:40.831Z,98962.98
2023-02-16T08:36:45.330Z,98965.64
2023-02-16T08:39:48.494Z,98972.25
2023-02-16T08:42:50.683Z,98969.44
2023-02-16T08:45:52.846Z,98975.48
2023-02-16T08:48:59.113Z,98972.08
2023-02-16T08:52:01.431Z,98970.20
2023-02-16T08:55:04.054Z,98975.98
2023-02-16T08:58:06.325Z,98974.24
2023-02-16T09:01:08.678Z,98973.58
2023-02-16T09:04:11.164Z,98976.13
2023-02-16T09:07:13.180Z,98979.28
2023-02-16T09:10:15.204Z,98983.08
2023-02-16T09:13:17.157Z,98976.05
2023-02-16T09:16:21.910Z,98979.92
2023-02-16T09:19:24.184Z,98979.91
2023-02-16T09:22:27.762Z,98985.05
2023-02-16T09:25:29.794Z,98991.29
2023-02-16T09:28:32.295Z,98988.46
2023-02-16T09:31:36.550Z,98993.64
2023-02-16T09:34:38.472Z,98995.73
2023-02-16T09:37:40.485Z,98992.27
2023-02-16T09:40:44.832Z,98989.95
2023-02-16T09:44:28.565Z,98988.96
2023-02-16T09:47:41.589Z,98985.52
2023-02-16T09:50:55.036Z,98981.14
2023-02-16T09:54:10.394Z,98981.15
2023-02-16T09:57:15.384Z,98978.05
2023-02-16T10:00:32.392Z,98975.10
2023-02-16T10:03:54.549Z,98976.99
2023-02-16T10:06:59.498Z,98972.68
2023-02-16T10:10:04.498Z,98967.09
2023-02-16T10:13:16.448Z,98965.37
2023-02-16T10:16:27.725Z,98957.86
2023-02-16T10:19:40.750Z,98949.04
2023-02-16T10:23:00.752Z,98945.13
2023-02-16T10:26:32.663Z,98942.98
2023-02-16T10:29:35.050Z,98936.16
2023-02-16T10:32:44.038Z,98934.83
2023-02-16T10:35:56.948Z,98925.31
2023-02-16T10:39:28.181Z,98916.77
2023-02-16T10:43:22.287Z,98917.02
2023-02-16T10:46:30.342Z,98905.98
2023-02-16T10:49:35.112Z,98905.45
2023-02-16T10:52:41.363Z,98907.85
2023-02-16T10:55:43.692Z,98905.99
2023-02-16T10:58:46.318Z,98900.40
2023-02-16T11:01:50.588Z,98899.52
2023-02-16T11:04:55.440Z,98894.40
2023-02-16T11:08:02.278Z,98888.11
2023-02-16T11:11:09.304Z,98895.15
2023-02-16T11:14:29.749Z,98892.16
2023-02-16T11:17:46.658Z,98889.79
2023-02-16T11:20:54.339Z,98884.86
2023-02-16T11:24:01.602Z,98877.80
2023-02-16T11:27:19.454Z,98871.23
2023-02-16T11:30:35.301Z,98871.00
2023-02-16T11:33:38.287Z,98863.85
2023-02-16T11:36:45.620Z,98864.88
2023-02-16T11:39:54.612Z,98861.89
2023-02-16T11:42:59.640Z,98871.63
2023-02-16T11:46:07.514Z,98864.29
2023-02-16T11:49:33.354Z,98862.50
2023-02-16T11:52:35.774Z,98866.98
2023-02-16T11:55:44.271Z,98864.58
2023-02-16T11:59:13.976Z,98865.33
2023-02-16T12:16:23.736Z,98855.52
2023-02-16T12:19:43.416Z,98851.56
2023-02-16T12:22:54.168Z,98848.73
2023-02-16T12:26:03.052Z,98846.97
2023-02-16T12:29:30.996Z,98846.31
2023-02-16T12:32:44.324Z,98843.50
2023-02-16T12:35:52.378Z,98843.57
2023-02-16T12:39:05.405Z,98833.83
2023-02-16T12:42:45.441Z,98826.50
2023-02-16T12:45:49.009Z,98829.63
2023-02-16T12:49:00.491Z,98827.73
2023-02-16T12:52:21.654Z,98826.63
2023-02-16T12:55:32.248Z,98821.73
2023-02-16T12:58:44.661Z,98812.55
2023-02-16T13:01:47.321Z,98811.48
2023-02-16T13:04:49.017Z,98814.08
2023-02-16T13:08:03.033Z,98813.19
2023-02-16T13:11:11.357Z,98809.90
2023-02-16T13:14:19.680Z,98810.60
2023-02-16T13:17:32.520Z,98801.17
2023-02-16T13:20:37.556Z,98798.36
2023-02-16T13:24:23.909Z,98796.55
2023-02-16T13:28:00.641Z,98797.08
2023-02-16T13:31:34.063Z,98794.23
2023-02-16T13:35:03.205Z,98787.67
2023-02-16T13:38:32.566Z,98783.68
2023-02-16T13:41:54.899Z,98775.70
2023-02-16T13:45:00.576Z,98773.47
2023-02-16T13:48:14.274Z,98771.83
2023-02-16T13:51:24.683Z,98778.80
2023-02-16T13:54:43.128Z,98779.09
2023-02-16T13:57:50.782Z,98774.04
2023-02-16T14:00:54.133Z,98779.66
2023-02-16T14:03:56.283Z,98777.38
2023-02-16T14:07:06.969Z,98775.40
2023-02-16T14:10:13.789Z,98769.30
2023-02-16T14:13:16.217Z,98771.50
2023-02-16T14:16:18.031Z,98775.67
2023-02-16T14:19:25.988Z,98770.43
2023-02-16T14:22:37.285Z,98768.16
2023-02-16T14:25:39.953Z,98767.86
2023-02-16T14:29:11.837Z,98765.23
2023-02-16T14:32:30.765Z,98763.91
2023-02-16T14:35:38.264Z,98762.84
2023-02-16T14:38:40.715Z,98773.82
2023-02-16T14:41:42.898Z,98776.58
2023-02-16T14:45:09.507Z,98779.48
2023-02-16T14:48:22.934Z,98786.33
2023-02-16T14:51:43.816Z,98791.44
2023-02-16T14:55:23.528Z,98787.12
2023-02-16T14:58:29.408Z,98786.46
2023-02-16T15:01:42.947Z,98779.73
2023-02-16T15:04:45.569Z,98784.42
2023-02-16T15:07:51.079Z,98784.89
2023-02-16T15:10:57.793Z,98787.45
2023-02-16T15:14:10.480Z,98788.14
2023-02-16T15:17:29.852Z,98791.95
2023-02-16T15:20:37.955Z,98794.97
2023-02-16T15:23:48.546Z,98791.40
2023-02-16T15:26:56.268Z,98784.80
2023-02-16T15:30:06.232Z,98783.58
2023-02-16T15:33:29.953Z,98780.10
2023-02-16T15:36:37.800Z,98772.05
2023-02-16T15:39:51.907Z,98768.44
2023-02-16T15:43:39.329Z,98760.98
2023-02-16T15:46:43.778Z,98761.08
2023-02-16T15:49:46.076Z,98757.05
2023-02-16T15:52:48.020Z,98750.06
2023-02-16T15:55:50.950Z,98747.55
2023-02-16T15:58:53.740Z,98748.92
2023-02-16T16:02:33.188Z,98746.81
2023-02-16T16:05:36.271Z,98754.34
2023-02-16T16:08:38.549Z,98754.98
2023-02-16T16:11:40.376Z,98754.92
2023-02-16T16:14:53.739Z,98749.75
2023-02-16T16:17:59.230Z,98748.61
2023-02-16T16:21:02.400Z,98745.95
2023-02-16T16:24:11.650Z,98746.89
2023-02-16T16:27:14.683Z,98751.41
2023-02-16T16:30:20.369Z,98750.33
2023-02-16T16:33:22.512Z,98750.73
2023-02-16T16:36:33.925Z,98751.20
2023-02-16T16:39:39.138Z,98755.66
2023-02-16T16:43:02.429Z,98753.69
2023-02-16T16:46:25.528Z,98752.33
2023-02-16T16:49:28.122Z,98756.81
2023-02-16T16:52:48.885Z,98755.79
2023-02-16T16:55:51.290Z,98757.79
2023-02-16T16:58:56.321Z,98759.77
2023-02-16T17:01:58.454Z,98759.31
2023-02-16T17:05:00.882Z,98764.09
2023-02-16T17:08:03.272Z,98764.56
2023-02-16T17:11:06.309Z,98765.23
2023-02-16T17:14:14.085Z,98765.55
2023-02-16T17:17:16.475Z,98759.38
2023-02-16T17:20:18.557Z,98756.05
2023-02-16T17:23:22.238Z,98755.84
2023-02-16T17:26:24.516Z,98753.55
2023-02-16T17:29:26.807Z,98753.70
2023-02-16T17:32:28.889Z,98751.55
2023-02-16T17:35:31.176Z,98750.21
2023-02-16T17:38:33.371Z,98751.53
2023-02-16T17:41:35.342Z,98753.66
2023-02-16T17:44:37.177Z,98752.67
2023-02-16T17:47:39.057Z,98755.84
2023-02-16T17:50:41.104Z,98763.42
2023-02-16T17:53:43.873Z,98765.27
2023-02-16T17:56:46.583Z,98765.70
2023-02-16T17:59:48.938Z,98766.34
2023-02-16T18:02:50.670Z,98764.13
2023-02-16T18:05:53.262Z,98767.73
2023-02-16T18:08:55.228Z,98770.44
2023-02-16T18:11:57.386Z,98772.82
2023-02-16T18:14:59.255Z,98770.80
2023-02-16T18:18:01.268Z,98768.14
2023-02-16T18:21:03.437Z,98772.70
2023-02-16T18:24:05.520Z,98778.19
2023-02-16T18:27:07.552Z,98772.46
2023-02-16T18:30:12.908Z,98776.63
2023-02-16T18:33:15.406Z,98780.88
2023-02-16T18:36:17.312Z,98786.29
2023-02-16T18:39:19.148Z,98784.05
2023-02-16T18:42:21.122Z,98787.09
2023-02-16T18:45:23.871Z,98784.96
2023-02-16T18:48:25.835Z,98788.16
2023-02-16T18:51:31.209Z,98788.48
2023-02-16T18:54:33.841Z,98792.86
2023-02-16T18:57:35.836Z,98791.21
2023-02-16T19:00:37.987Z,98787.25
2023-02-16T19:03:40.767Z,98785.85
2023-02-16T19:06:43.710Z,98779.70
2023-02-16T19:09:46.396Z,98779.34
2023-02-16T19:12:49.052Z,98779.88
2023-02-16T19:15:51.497Z,98783.17
2023-02-16T19:18:54.405Z,98784.65
2023-02-16T19:21:56.761Z,98786.05
2023-02-16T19:24:59.694Z,98785.57
2023-02-16T19:28:02.436Z,98788.05
2023-02-16T19:31:14.894Z,98787.77
2023-02-16T19:34:17.549Z,98783.36
2023-02-16T19:37:24.195Z,98779.44
2023-02-16T19:40:26.677Z,98777.70
2023-02-16T19:43:29.707Z,98774.73
2023-02-16T19:46:34.680Z,98776.54
2023-02-16T19:49:37.787Z,98764.93
2023-02-16T19:52:41.116Z,98762.11
2023-02-16T19:55:45.797Z,98763.23
2023-02-16T19:58:49.504Z,98769.98
2023-02-16T20:01:52.689Z,98773.81
2023-02-16T20:04:55.914Z,98772.73
2023-02-16T20:07:58.629Z,98769.23
2023-02-16T20:11:04.177Z,98774.84
2023-02-16T20:14:07.553Z,98775.38
2023-02-16T20:17:10.456Z,98778.13
2023-02-16T20:20:13.942Z,98777.13
2023-02-16T20:23:16.978Z,98776.14
2023-02-16T20:26:24.225Z,98776.66
2023-02-16T20:29:27.234Z,98775.27
2023-02-16T20:32:30.042Z,98774.54
2023-02-16T20:35:35.951Z,98777.60
2023-02-16T20:38:38.852Z,98775.45
2023-02-16T20:41:41.791Z,98777.14
2023-02-16T20:44:44.481Z,98773.67
2023-02-16T20:47:46.871Z,98774.64
2023-02-16T20:50:57.167Z,98779.58
2023-02-16T20:54:01.464Z,98774.52
2023-02-16T20:57:05.149Z,98769.70
2023-02-16T21:00:13.564Z,98771.76
2023-02-16T21:03:15.954Z,98772.08
2023-02-16T21:06:18.784Z,98770.33
2023-02-16T21:09:20.716Z,98769.99
2023-02-16T21:12:22.681Z,98769.88
2023-02-16T21:15:24.517Z,98771.54
2023-02-16T21:18:26.387Z,98767.90
2023-02-16T21:21:28.312Z,98764.47
2023-02-16T21:24:30.166Z,98760.96
2023-02-16T21:27:31.990Z,98761.11
2023-02-16T21:30:33.934Z,98757.47
2023-02-16T21:33:36.216Z,98756.12
2023-02-16T21:36:38.204Z,98754.73
2023-02-16T21:39:58.598Z,98755.82
2023-02-16T21:43:00.475Z,98756.75
2023-02-16T21:46:02.473Z,98759.27
2023-02-16T21:49:06.812Z,98759.31
2023-02-16T21:52:08.733Z,98757.44
2023-02-16T21:55:30.773Z,98752.69
2023-02-16T21:58:33.726Z,98754.22
2023-02-16T22:01:39.047Z,98760.27
2023-02-16T22:04:42.092Z,98756.44
2023-02-16T22:07:43.989Z,98756.82
2023-02-16T22:10:45.797Z,98753.77
2023-02-16T22:13:53.063Z,98759.79
2023-02-16T22:16:55.025Z,98754.38
2023-02-16T22:19:56.787Z,98752.98
2023-02-16T22:22:58.650Z,98756.20
2023-02-16T22:26:01.032Z,98760.54
2023-02-16T22:29:04.908Z,98761.16
2023-02-16T22:32:06.897Z,98762.53
2023-02-16T22:35:08.785Z,98761.59
2023-02-16T22:38:10.587Z,98763.05
2023-02-16T22:41:12.523Z,98762.13
2023-02-16T22:44:15.052Z,98766.01
2023-02-16T22:47:17.063Z,98759.27
2023-02-16T22:50:18.989Z,98759.89
2023-02-16T22:53:20.812Z,98763.56
2023-02-16T22:56:22.610Z,98760.82
2023-02-16T22:59:24.476Z,98763.48
2023-02-16T23:02:26.324Z,98767.44
2023-02-16T23:05:29.802Z,98762.60
2023-02-16T23:08:31.625Z,98756.71
2023-02-16T23:11:35.061Z,98759.63
2023-02-16T23:14:37.849Z,98759.02
2023-02-16T23:17:39.662Z,98756.12
2023-02-16T23:20:41.490Z,98751.85
2023-02-16T23:23:44.236Z,98744.33
2023-02-16T23:26:46.694Z,98738.09
2023-02-16T23:29:48.591Z,98740.29
2023-02-16T23:32:50.785Z,98738.04
2023-02-16T23:35:53.475Z,98732.48
2023-02-16T23:38:59.469Z,98732.63
2023-02-16T23:42:01.285Z,98729.15
2023-02-16T23:45:03.807Z,98727.05
2023-02-16T23:48:05.684Z,98726.64
2023-02-16T23:51:07.555Z,98727.57
2023-02-16T23:54:10.799Z,98725.09
2023-02-16T23:57:12.651Z,98723.48
